createdAt,value
2018-11-21T00:01:03.161Z,22.57
2018-11-21T00:03:30.339Z,24.77
2018-11-21T00:05:57.354Z,21.60
2018-11-21T00:08:24.455Z,20.07
2018-11-21T00:10:51.489Z,21.07
2018-11-21T00:13:18.484Z,23.20
2018-11-21T00:15:45.527Z,23.20
2018-11-21T00:18:12.531Z,22.53
2018-11-21T00:20:39.540Z,22.20
2018-11-21T00:23:06.606Z,23.17
2018-11-21T00:25:33.671Z,22.87
2018-11-21T00:28:00.729Z,23.20
2018-11-21T00:30:27.728Z,24.10
2018-11-21T00:32:54.802Z,22.10
2018-11-21T00:35:21.838Z,23.23
2018-11-21T00:37:48.910Z,21.83
2018-11-21T00:40:15.945Z,23.90
2018-11-21T00:42:46.627Z,22.80
2018-11-21T00:45:10.437Z,22.50
2018-11-21T00:47:37.495Z,22.87
2018-11-21T00:50:05.171Z,22.47
2018-11-21T00:52:32.225Z,22.87
2018-11-21T00:54:59.276Z,23.77
2018-11-21T00:57:26.319Z,22.73
2018-11-21T00:59:53.502Z,22.90
2018-11-21T01:02:20.577Z,22.87
2018-11-21T01:04:47.601Z,22.73
2018-11-21T01:07:14.605Z,25.37
2018-11-21T01:09:41.671Z,23.57
2018-11-21T01:12:08.765Z,22.90
2018-11-21T01:14:35.778Z,23.83
2018-11-21T01:17:02.929Z,23.20
2018-11-21T01:19:30.000Z,22.80
2018-11-21T01:21:57.005Z,24.23
2018-11-21T01:24:24.045Z,24.43
2018-11-21T01:26:51.075Z,24.23
2018-11-21T01:29:18.134Z,25.00
2018-11-21T01:31:45.224Z,21.63
2018-11-21T01:34:12.286Z,24.03
2018-11-21T01:36:39.285Z,23.60
2018-11-21T01:39:08.817Z,23.07
2018-11-21T01:41:35.844Z,23.20
2018-11-21T01:44:02.913Z,24.00
2018-11-21T01:46:29.912Z,22.23
2018-11-21T01:48:57.036Z,26.03
2018-11-21T01:51:24.078Z,22.20
2018-11-21T01:53:51.081Z,22.63
2018-11-21T01:56:18.132Z,25.90
2018-11-21T01:58:45.121Z,24.23
2018-11-21T02:01:12.193Z,23.80
2018-11-21T02:03:39.198Z,25.37
2018-11-21T02:06:06.483Z,25.67
2018-11-21T02:08:33.639Z,24.53
2018-11-21T02:11:00.648Z,25.37
2018-11-21T02:13:27.697Z,27.80
2018-11-21T02:15:54.799Z,24.90
2018-11-21T02:18:21.793Z,26.43
2018-11-21T02:20:48.833Z,24.80
2018-11-21T02:23:15.887Z,25.50
2018-11-21T02:25:42.899Z,26.77
2018-11-21T02:28:09.907Z,24.67
2018-11-21T02:30:36.954Z,27.50
2018-11-21T02:33:04.726Z,25.90
2018-11-21T02:35:31.796Z,27.70
2018-11-21T02:37:58.847Z,26.40
2018-11-21T02:40:25.803Z,27.57
2018-11-21T02:42:52.865Z,25.27
2018-11-21T02:45:19.865Z,24.93
2018-11-21T02:47:46.862Z,27.30
2018-11-21T02:50:13.936Z,26.33
2018-11-21T02:52:40.974Z,27.60
2018-11-21T02:55:08.032Z,27.83
2018-11-21T02:57:35.565Z,26.73
2018-11-21T03:00:25.913Z,25.70
2018-11-21T03:02:52.926Z,27.13
2018-11-21T03:05:19.967Z,26.73
2018-11-21T03:07:50.924Z,26.60
2018-11-21T03:10:18.643Z,28.03
2018-11-21T03:12:45.687Z,27.80
2018-11-21T03:15:12.747Z,28.13
2018-11-21T03:17:39.748Z,28.00
2018-11-21T03:20:06.813Z,27.67
2018-11-21T03:22:33.803Z,27.17
2018-11-21T03:25:00.801Z,28.97
2018-11-21T03:27:27.868Z,25.87
2018-11-21T03:29:54.907Z,26.10
2018-11-21T03:32:21.919Z,26.33
2018-11-21T03:34:48.940Z,27.63
2018-11-21T03:37:15.924Z,27.53
2018-11-21T03:39:42.958Z,27.30
2018-11-21T03:42:09.978Z,25.73
2018-11-21T03:44:37.034Z,26.77
2018-11-21T03:47:04.106Z,27.07
2018-11-21T03:49:31.087Z,28.93
2018-11-21T03:51:58.105Z,28.70
2018-11-21T03:54:25.209Z,29.60
2018-11-21T03:56:52.249Z,28.70
2018-11-21T03:59:19.237Z,27.43
2018-11-21T04:01:46.284Z,26.87
2018-11-21T04:04:13.328Z,30.00
2018-11-21T04:06:40.406Z,27.40
2018-11-21T04:09:09.149Z,27.63
2018-11-21T04:11:36.211Z,28.23
2018-11-21T04:14:03.247Z,27.00
2018-11-21T04:16:30.240Z,26.73
2018-11-21T04:18:57.286Z,24.13
2018-11-21T04:21:24.282Z,24.20
2018-11-21T04:23:51.331Z,27.27
2018-11-21T04:26:18.428Z,27.50
2018-11-21T04:28:45.806Z,24.03
2018-11-21T04:31:13.664Z,25.23
2018-11-21T04:33:40.697Z,26.20
2018-11-21T04:36:07.727Z,27.07
2018-11-21T04:38:34.787Z,25.57
2018-11-21T04:41:01.817Z,25.10
2018-11-21T04:43:28.837Z,26.53
2018-11-21T04:45:55.881Z,25.80
2018-11-21T04:48:22.886Z,25.67
2018-11-21T04:50:49.929Z,24.63
2018-11-21T04:53:16.977Z,24.17
2018-11-21T04:55:44.045Z,25.87
2018-11-21T04:58:11.051Z,27.00
2018-11-21T05:00:38.087Z,26.00
2018-11-21T05:03:05.291Z,25.23
2018-11-21T05:05:32.447Z,24.70
2018-11-21T05:07:59.498Z,25.57
2018-11-21T05:10:26.484Z,25.17
2018-11-21T05:12:53.566Z,27.57
2018-11-21T05:15:20.562Z,28.17
2018-11-21T05:17:47.587Z,25.27
2018-11-21T05:20:14.729Z,26.13
2018-11-21T05:22:41.783Z,25.60
2018-11-21T05:25:09.833Z,27.83
2018-11-21T05:27:36.872Z,26.03
2018-11-21T05:30:06.294Z,25.70
2018-11-21T05:32:33.339Z,25.50
2018-11-21T05:35:00.403Z,27.53
2018-11-21T05:37:27.437Z,27.13
2018-11-21T05:39:54.495Z,25.90
2018-11-21T05:42:21.500Z,26.70
2018-11-21T05:44:48.609Z,29.23
2018-11-21T05:47:15.650Z,26.47
2018-11-21T05:49:42.683Z,28.03
2018-11-21T05:52:09.674Z,26.73
2018-11-21T05:54:36.716Z,27.80
2018-11-21T05:57:03.886Z,26.30
2018-11-21T05:59:30.944Z,24.43
2018-11-21T06:01:58.023Z,24.73
2018-11-21T06:04:25.019Z,25.30
2018-11-21T06:06:52.113Z,29.57
2018-11-21T06:09:19.163Z,23.37
2018-11-21T06:11:46.167Z,25.80
2018-11-21T06:14:13.330Z,26.40
2018-11-21T06:16:40.342Z,25.50
2018-11-21T06:19:07.344Z,27.00
2018-11-21T06:21:34.395Z,25.17
2018-11-21T06:24:01.407Z,25.63
2018-11-21T06:26:28.460Z,27.37
2018-11-21T06:28:55.518Z,26.17
2018-11-21T06:31:22.559Z,23.77
2018-11-21T06:33:49.587Z,24.70
2018-11-21T06:36:16.793Z,25.10
2018-11-21T06:38:43.876Z,26.17
2018-11-21T06:41:10.927Z,24.37
2018-11-21T06:43:37.966Z,25.60
2018-11-21T06:46:05.220Z,25.03
2018-11-21T06:48:32.334Z,25.73
2018-11-21T06:50:59.384Z,30.50
2018-11-21T06:53:26.433Z,26.13
2018-11-21T06:55:53.624Z,26.23
2018-11-21T06:58:20.632Z,25.13
2018-11-21T07:00:47.680Z,24.67
2018-11-21T07:03:14.720Z,26.50
2018-11-21T07:05:41.839Z,25.07
2018-11-21T07:08:08.884Z,25.73
2018-11-21T07:10:35.884Z,24.37
2018-11-21T07:13:02.962Z,23.53
2018-11-21T07:15:30.041Z,24.50
2018-11-21T07:17:57.040Z,26.30
2018-11-21T07:20:24.051Z,28.00
2018-11-21T07:22:51.379Z,25.53
2018-11-21T07:25:19.861Z,23.70
2018-11-21T07:27:46.946Z,24.67
2018-11-21T07:30:14.973Z,26.57
2018-11-21T07:32:42.030Z,21.23
2018-11-21T07:35:09.425Z,24.63
2018-11-21T07:37:37.095Z,23.03
2018-11-21T07:40:06.157Z,23.27
2018-11-21T07:42:33.168Z,25.87
2018-11-21T07:45:00.199Z,22.97
2018-11-21T07:47:27.243Z,24.20
2018-11-21T07:49:54.235Z,22.37
2018-11-21T07:52:21.224Z,23.60
2018-11-21T07:54:48.261Z,26.47
2018-11-21T07:57:36.553Z,24.17
2018-11-21T08:00:59.010Z,25.20
2018-11-21T08:03:27.762Z,24.50
2018-11-21T08:06:00.305Z,23.47
2018-11-21T08:08:45.698Z,23.40
2018-11-21T08:11:50.344Z,23.63
2018-11-21T08:14:27.759Z,24.33
2018-11-21T08:17:20.440Z,23.93
2018-11-21T08:20:19.203Z,27.30
2018-11-21T08:23:04.938Z,24.17
2018-11-21T08:25:38.181Z,26.20
2018-11-21T08:28:30.901Z,25.80
2018-11-21T08:30:57.931Z,24.40
2018-11-21T08:33:25.035Z,25.70
2018-11-21T08:35:52.034Z,24.33
2018-11-21T08:38:19.081Z,23.20
2018-11-21T08:40:46.077Z,27.00
2018-11-21T08:43:13.063Z,24.23
2018-11-21T08:45:40.138Z,22.00
2018-11-21T08:48:07.250Z,23.03
2018-11-21T08:50:34.398Z,25.50
2018-11-21T08:53:02.020Z,23.70
2018-11-21T08:55:29.020Z,25.10
2018-11-21T08:57:56.058Z,21.80
2018-11-21T09:00:23.067Z,23.90
2018-11-21T09:02:50.106Z,24.23
2018-11-21T09:05:17.102Z,24.10
2018-11-21T09:07:44.155Z,24.03
2018-11-21T09:10:12.373Z,25.73
2018-11-21T09:12:39.773Z,23.23
2018-11-21T09:15:12.611Z,24.90
2018-11-21T09:17:39.940Z,26.03
2018-11-21T09:20:07.980Z,24.47
2018-11-21T09:22:35.025Z,22.77
2018-11-21T09:25:02.447Z,24.13
2018-11-21T09:27:29.490Z,23.63
2018-11-21T09:29:56.485Z,22.40
2018-11-21T09:32:23.520Z,26.93
2018-11-21T09:34:50.584Z,26.30
2018-11-21T09:37:17.555Z,25.43
2018-11-21T09:39:44.622Z,22.97
2018-11-21T09:42:11.629Z,23.87
2018-11-21T09:44:38.667Z,22.53
2018-11-21T09:47:05.705Z,24.87
2018-11-21T09:49:32.810Z,26.07
2018-11-21T09:51:59.831Z,23.80
2018-11-21T09:54:26.821Z,27.10
2018-11-21T09:56:53.856Z,24.83
2018-11-21T09:59:20.849Z,25.40
2018-11-21T10:02:24.989Z,27.17
2018-11-21T10:04:51.976Z,25.80
2018-11-21T10:07:18.966Z,27.07
2018-11-21T10:09:47.914Z,24.50
2018-11-21T10:12:14.945Z,27.10
2018-11-21T10:14:42.088Z,25.17
2018-11-21T10:17:09.266Z,25.00
2018-11-21T10:19:36.300Z,28.87
2018-11-21T10:22:03.396Z,24.13
2018-11-21T10:24:30.434Z,24.80
2018-11-21T10:26:57.447Z,25.13
2018-11-21T10:29:24.458Z,24.30
2018-11-21T10:31:51.636Z,23.00
2018-11-21T10:34:18.628Z,26.67
2018-11-21T10:36:45.635Z,27.77
2018-11-21T10:39:12.619Z,24.50
2018-11-21T10:41:39.674Z,24.43
2018-11-21T10:44:06.715Z,27.80
2018-11-21T10:46:33.751Z,26.20
2018-11-21T10:49:00.812Z,25.60
2018-11-21T10:51:27.794Z,25.40
2018-11-21T10:53:54.789Z,28.40
2018-11-21T10:56:21.828Z,27.07
2018-11-21T10:58:48.820Z,25.87
2018-11-21T11:01:23.204Z,24.00
2018-11-21T11:04:09.934Z,29.07
2018-11-21T11:06:55.258Z,26.00
2018-11-21T11:09:39.543Z,22.93
2018-11-21T11:12:21.788Z,25.90
2018-11-21T11:15:07.367Z,24.10
2018-11-21T11:18:05.915Z,24.80
2018-11-21T11:21:01.521Z,25.63
2018-11-21T11:23:46.922Z,28.00
2018-11-21T11:26:42.395Z,26.03
2018-11-21T11:29:36.493Z,27.77
2018-11-21T11:32:35.193Z,26.63
2018-11-21T11:35:20.572Z,32.73
2018-11-21T11:38:06.391Z,25.70
2018-11-21T11:40:51.738Z,24.60
2018-11-21T11:43:37.283Z,29.63
2018-11-21T11:46:23.072Z,25.83
2018-11-21T11:49:05.453Z,26.23
2018-11-21T11:51:55.133Z,25.80
2018-11-21T11:54:50.776Z,25.10
2018-11-21T11:57:48.881Z,31.07
2018-11-21T12:00:32.568Z,24.30
2018-11-21T12:03:37.560Z,27.97
2018-11-21T12:06:36.826Z,28.47
2018-11-21T12:09:25.049Z,26.43
2018-11-21T12:12:27.131Z,26.43
2018-11-21T12:15:23.076Z,27.87
2018-11-21T12:18:08.267Z,30.30
2018-11-21T12:20:53.913Z,29.27
2018-11-21T12:23:29.710Z,27.90
2018-11-21T12:26:18.419Z,26.67
2018-11-21T12:29:05.069Z,27.00
2018-11-21T12:31:50.719Z,25.90
2018-11-21T12:34:43.544Z,29.67
2018-11-21T12:37:33.348Z,28.07
2018-11-21T12:40:19.313Z,29.40
2018-11-21T12:43:04.947Z,27.03
2018-11-21T12:45:50.224Z,26.90
2018-11-21T12:48:36.639Z,28.93
2018-11-21T12:51:15.290Z,30.27
2018-11-21T12:54:00.359Z,28.57
2018-11-21T12:56:58.744Z,29.00
2018-11-21T12:59:57.428Z,30.00
2018-11-21T13:02:56.437Z,29.10
2018-11-21T13:05:41.910Z,27.57
2018-11-21T13:08:18.275Z,28.30
2018-11-21T13:11:04.030Z,29.40
2018-11-21T13:13:53.630Z,29.90
2018-11-21T13:16:42.038Z,29.30
2018-11-21T13:19:27.636Z,28.67
2018-11-21T13:22:23.566Z,34.23
2018-11-21T13:25:09.032Z,31.37
2018-11-21T13:27:47.179Z,33.23
2018-11-21T13:30:32.901Z,30.13
2018-11-21T13:33:19.498Z,28.23
2018-11-21T13:36:04.823Z,29.70
2018-11-21T13:38:50.459Z,30.10
2018-11-21T13:41:39.133Z,28.90
2018-11-21T13:44:24.529Z,30.30
2018-11-21T13:47:02.323Z,32.70
2018-11-21T13:50:01.363Z,29.70
2018-11-21T13:52:46.497Z,29.47
2018-11-21T13:55:13.541Z,31.37
2018-11-21T13:57:40.518Z,30.70
2018-11-21T14:00:09.716Z,28.83
2018-11-21T14:02:36.739Z,28.50
2018-11-21T14:05:04.841Z,32.47
2018-11-21T14:07:31.841Z,28.67
2018-11-21T14:09:58.882Z,29.47
2018-11-21T14:12:25.956Z,29.03
2018-11-21T14:14:52.934Z,28.90
2018-11-21T14:17:27.385Z,33.00
2018-11-21T14:19:46.972Z,30.53
2018-11-21T14:22:13.968Z,30.97
2018-11-21T14:24:41.016Z,27.90
2018-11-21T14:27:08.024Z,32.80
2018-11-21T14:29:35.069Z,30.03
2018-11-21T14:32:02.061Z,34.17
2018-11-21T14:34:29.102Z,32.07
2018-11-21T14:36:56.083Z,31.03
2018-11-21T14:39:23.120Z,30.73
2018-11-21T14:41:50.111Z,34.77
2018-11-21T14:44:17.230Z,31.57
2018-11-21T14:46:46.287Z,29.43
2018-11-21T14:49:13.326Z,34.87
2018-11-21T14:51:40.306Z,33.03
2018-11-21T14:54:07.991Z,34.90
2018-11-21T14:56:35.214Z,31.20
2018-11-21T14:59:02.272Z,34.40
2018-11-21T15:01:29.267Z,34.17
2018-11-21T15:03:56.359Z,35.43
2018-11-21T15:06:23.409Z,36.87
2018-11-21T15:08:50.457Z,34.20
2018-11-21T15:11:17.514Z,31.37
2018-11-21T15:13:44.500Z,36.50
2018-11-21T15:16:11.533Z,34.70
2018-11-21T15:18:38.513Z,38.40
2018-11-21T15:21:05.535Z,34.93
2018-11-21T15:23:32.765Z,35.30
2018-11-21T15:25:59.766Z,34.97
2018-11-21T15:28:27.921Z,35.97
2018-11-21T15:30:53.830Z,34.57
2018-11-21T15:33:20.897Z,37.57
2018-11-21T15:35:47.878Z,33.70
2018-11-21T15:38:14.924Z,35.70
2018-11-21T15:40:46.935Z,35.83
2018-11-21T15:43:09.021Z,35.27
2018-11-21T15:45:36.047Z,34.60
2018-11-21T15:48:03.088Z,35.70
2018-11-21T15:50:31.010Z,35.03
2018-11-21T15:52:57.996Z,35.73
2018-11-21T15:55:24.999Z,35.33
2018-11-21T15:57:51.993Z,34.07
2018-11-21T16:00:21.767Z,33.87
2018-11-21T16:02:50.042Z,34.73
2018-11-21T16:05:17.531Z,30.40
2018-11-21T16:07:44.519Z,35.97
2018-11-21T16:10:18.941Z,34.00
2018-11-21T16:12:43.008Z,34.03
2018-11-21T16:15:11.665Z,32.60
2018-11-21T16:17:38.709Z,31.90
2018-11-21T16:20:07.225Z,32.10
2018-11-21T16:22:34.236Z,32.73
2018-11-21T16:25:01.310Z,29.63
2018-11-21T16:27:28.298Z,32.83
2018-11-21T16:29:55.284Z,29.57
2018-11-21T16:32:22.332Z,29.77
2018-11-21T16:34:49.334Z,28.40
2018-11-21T16:37:16.379Z,27.40
2018-11-21T16:39:43.375Z,29.43
2018-11-21T16:42:10.465Z,30.27
2018-11-21T16:44:37.509Z,31.23
2018-11-21T16:47:04.711Z,30.53
2018-11-21T16:49:31.760Z,30.37
2018-11-21T16:51:58.789Z,28.27
2018-11-21T16:54:25.789Z,28.50
2018-11-21T16:56:52.835Z,29.33
2018-11-21T16:59:20.033Z,29.67
2018-11-21T17:01:47.001Z,28.07
2018-11-21T17:04:14.043Z,28.40
2018-11-21T17:06:41.036Z,28.60
2018-11-21T17:09:09.014Z,28.70
2018-11-21T17:11:36.045Z,31.70
2018-11-21T17:14:03.100Z,30.10
2018-11-21T17:16:30.074Z,29.00
2018-11-21T17:18:57.055Z,31.23
2018-11-21T17:21:24.099Z,31.23
2018-11-21T17:23:51.242Z,30.23
2018-11-21T17:26:18.279Z,29.17
2018-11-21T17:28:45.269Z,27.27
2018-11-21T17:31:12.318Z,29.53
2018-11-21T17:33:39.370Z,27.93
2018-11-21T17:36:06.427Z,27.30
2018-11-21T17:38:33.825Z,27.40
2018-11-21T17:41:00.427Z,26.83
2018-11-21T17:43:27.454Z,28.37
2018-11-21T17:45:54.451Z,29.13
2018-11-21T17:48:21.514Z,27.50
2018-11-21T17:50:48.503Z,28.50
2018-11-21T17:53:15.492Z,25.47
2018-11-21T17:55:42.551Z,29.40
2018-11-21T17:58:09.538Z,30.33
2018-11-21T18:00:36.585Z,28.17
2018-11-21T18:03:04.006Z,28.17
2018-11-21T18:05:32.892Z,30.30
2018-11-21T18:07:59.943Z,25.47
2018-11-21T18:10:28.786Z,29.20
2018-11-21T18:12:55.893Z,30.20
2018-11-21T18:15:23.214Z,26.87
2018-11-21T18:17:50.421Z,29.93
2018-11-21T18:20:18.106Z,28.90
2018-11-21T18:22:45.977Z,27.63
2018-11-21T18:25:17.967Z,28.80
2018-11-21T18:27:45.262Z,26.93
2018-11-21T18:30:14.613Z,28.40
2018-11-21T18:32:42.542Z,30.60
2018-11-21T18:35:10.818Z,26.33
2018-11-21T18:37:37.853Z,26.00
2018-11-21T18:40:07.838Z,29.00
2018-11-21T18:42:34.897Z,28.43
2018-11-21T18:45:01.910Z,27.10
2018-11-21T18:47:28.916Z,26.30
2018-11-21T18:49:55.966Z,25.87
2018-11-21T18:52:22.957Z,27.00
2018-11-21T18:54:50.014Z,27.10
2018-11-21T18:57:24.522Z,25.00
2018-11-21T18:59:55.937Z,27.27
2018-11-21T19:02:22.920Z,28.83
2018-11-21T19:04:50.222Z,33.10
2018-11-21T19:07:17.207Z,26.17
2018-11-21T19:09:44.191Z,29.43
2018-11-21T19:12:11.217Z,30.10
2018-11-21T19:14:38.439Z,27.60
2018-11-21T19:17:05.822Z,28.50
2018-11-21T19:19:32.864Z,26.87
2018-11-21T19:21:59.913Z,25.13
2018-11-21T19:24:26.954Z,27.23
2018-11-21T19:26:53.930Z,26.67
2018-11-21T19:29:20.954Z,25.00
2018-11-21T19:31:48.009Z,25.70
2018-11-21T19:34:15.332Z,27.23
2018-11-21T19:36:42.434Z,25.70
2018-11-21T19:39:11.697Z,24.10
2018-11-21T19:41:38.662Z,26.73
2018-11-21T19:44:05.725Z,27.47
2018-11-21T19:46:33.765Z,26.67
2018-11-21T19:49:01.050Z,27.17
2018-11-21T19:51:28.055Z,27.73
2018-11-21T19:53:55.145Z,24.90
